sensor_id;sensor_type;location;lat;lon;timestamp;pressure;altitude;pressure_sealevel;temperature;humidity
45357;BME280;31092;51.924;21.448;2022-12-08T00:00:54;99492.81;;;-0.63;100.00
45357;BME280;31092;51.924;21.448;2022-12-08T00:03:19;99490.13;;;-0.74;100.00
45357;BME280;31092;51.924;21.448;2022-12-08T00:05:47;99553.41;;;-0.36;100.00
45357;BME280;31092;51.924;21.448;2022-12-08T00:08:32;99562.72;;;-0.30;100.00
45357;BME280;31092;51.924;21.448;2022-12-08T00:11:16;99582.47;;;-0.23;100.00
45357;BME280;31092;51.924;21.448;2022-12-08T00:13:42;99497.50;;;-0.66;100.00
45357;BME280;31092;51.924;21.448;2022-12-08T00:16:08;99529.69;;;-0.49;100.00
45357;BME280;31092;51.924;21.448;2022-12-08T00:18:34;99588.88;;;-0.14;100.00
45357;BME280;31092;51.924;21.448;2022-12-08T00:21:00;99557.19;;;-0.27;100.00
45357;BME280;31092;51.924;21.448;2022-12-08T00:23:25;99584.81;;;-0.07;100.00
45357;BME280;31092;51.924;21.448;2022-12-08T00:26:06;99492.81;;;-0.63;100.00
45357;BME280;31092;51.924;21.448;2022-12-08T00:28:37;99520.00;;;-0.37;100.00
45357;BME280;31092;51.924;21.448;2022-12-08T00:31:10;99603.69;;;0.12;100.00
45357;BME280;31092;51.924;21.448;2022-12-08T00:33:35;99528.31;;;-0.30;100.00
45357;BME280;31092;51.924;21.448;2022-12-08T00:36:08;99581.72;;;-0.01;100.00
45357;BME280;31092;51.924;21.448;2022-12-08T00:38:35;99548.56;;;-0.18;100.00
45357;BME280;31092;51.924;21.448;2022-12-08T00:41:02;99527.69;;;-0.34;100.00
45357;BME280;31092;51.924;21.448;2022-12-08T00:43:28;99619.72;;;0.22;100.00
45357;BME280;31092;51.924;21.448;2022-12-08T00:45:53;99494.16;;;-0.57;100.00
45357;BME280;31092;51.924;21.448;2022-12-08T00:48:18;99606.31;;;0.12;100.00
45357;BME280;31092;51.924;21.448;2022-12-08T00:50:44;99535.41;;;-0.31;100.00
45357;BME280;31092;51.924;21.448;2022-12-08T00:53:09;99622.47;;;0.20;100.00
45357;BME280;31092;51.924;21.448;2022-12-08T00:55:35;99539.25;;;-0.35;100.00
45357;BME280;31092;51.924;21.448;2022-12-08T00:58:00;99531.41;;;-0.36;100.00
45357;BME280;31092;51.924;21.448;2022-12-08T01:00:26;99597.50;;;0.01;100.00
45357;BME280;31092;51.924;21.448;2022-12-08T01:02:51;99546.00;;;-0.31;100.00
45357;BME280;31092;51.924;21.448;2022-12-08T01:05:17;99532.78;;;-0.55;100.00
45357;BME280;31092;51.924;21.448;2022-12-08T01:07:42;99539.13;;;-0.57;100.00
45357;BME280;31092;51.924;21.448;2022-12-08T01:10:08;99610.13;;;-0.27;100.00
45357;BME280;31092;51.924;21.448;2022-12-08T01:12:33;99606.34;;;-0.36;100.00
45357;BME280;31092;51.924;21.448;2022-12-08T01:14:59;99629.31;;;-0.36;100.00
45357;BME280;31092;51.924;21.448;2022-12-08T01:17:24;99641.13;;;-0.29;100.00
45357;BME280;31092;51.924;21.448;2022-12-08T01:19:50;99621.84;;;-0.42;100.00
45357;BME280;31092;51.924;21.448;2022-12-08T01:22:16;99532.75;;;-1.03;100.00
45357;BME280;31092;51.924;21.448;2022-12-08T01:24:41;99567.75;;;-0.75;100.00
45357;BME280;31092;51.924;21.448;2022-12-08T01:27:07;99569.00;;;-0.68;100.00
45357;BME280;31092;51.924;21.448;2022-12-08T01:29:32;99590.25;;;-0.57;100.00
45357;BME280;31092;51.924;21.448;2022-12-08T01:31:58;99623.16;;;-0.37;100.00
45357;BME280;31092;51.924;21.448;2022-12-08T01:34:24;99555.16;;;-0.72;100.00
45357;BME280;31092;51.924;21.448;2022-12-08T01:36:49;99564.31;;;-0.64;100.00
45357;BME280;31092;51.924;21.448;2022-12-08T01:39:16;99561.47;;;-0.61;100.00
45357;BME280;31092;51.924;21.448;2022-12-08T01:41:43;99598.31;;;-0.34;100.00
45357;BME280;31092;51.924;21.448;2022-12-08T01:46:39;99648.66;;;0.01;100.00
45357;BME280;31092;51.924;21.448;2022-12-08T01:52:15;99605.31;;;-0.22;100.00
45357;BME280;31092;51.924;21.448;2022-12-08T01:54:49;99586.53;;;-0.30;100.00
45357;BME280;31092;51.924;21.448;2022-12-08T01:57:32;99630.91;;;-0.10;100.00
45357;BME280;31092;51.924;21.448;2022-12-08T02:00:08;99572.06;;;-0.37;100.00
45357;BME280;31092;51.924;21.448;2022-12-08T02:02:45;99548.19;;;-0.49;100.00
45357;BME280;31092;51.924;21.448;2022-12-08T02:05:15;99642.28;;;0.04;100.00
45357;BME280;31092;51.924;21.448;2022-12-08T02:07:42;99645.22;;;-0.12;100.00
45357;BME280;31092;51.924;21.448;2022-12-08T02:10:09;99647.97;;;-0.14;100.00
45357;BME280;31092;51.924;21.448;2022-12-08T02:12:36;99578.91;;;-0.59;100.00
45357;BME280;31092;51.924;21.448;2022-12-08T02:15:01;99548.25;;;-0.85;100.00
45357;BME280;31092;51.924;21.448;2022-12-08T02:25:19;99652.47;;;-0.27;100.00
45357;BME280;31092;51.924;21.448;2022-12-08T02:38:37;99681.81;;;-0.06;100.00
45357;BME280;31092;51.924;21.448;2022-12-08T02:41:38;99683.50;;;-0.05;100.00
45357;BME280;31092;51.924;21.448;2022-12-08T02:44:20;99526.28;;;-0.99;100.00
45357;BME280;31092;51.924;21.448;2022-12-08T02:46:54;99529.25;;;-1.03;100.00
45357;BME280;31092;51.924;21.448;2022-12-08T02:49:33;99591.88;;;-0.80;100.00
45357;BME280;31092;51.924;21.448;2022-12-08T02:54:41;99571.00;;;-1.08;100.00
45357;BME280;31092;51.924;21.448;2022-12-08T03:05:30;99692.84;;;-0.49;100.00
45357;BME280;31092;51.924;21.448;2022-12-08T03:08:24;99709.16;;;-0.55;100.00
45357;BME280;31092;51.924;21.448;2022-12-08T03:10:57;99692.16;;;-0.64;100.00
45357;BME280;31092;51.924;21.448;2022-12-08T03:13:32;99679.97;;;-0.79;100.00
45357;BME280;31092;51.924;21.448;2022-12-08T03:16:00;99612.56;;;-1.23;100.00
45357;BME280;31092;51.924;21.448;2022-12-08T03:18:30;99682.84;;;-0.82;100.00
45357;BME280;31092;51.924;21.448;2022-12-08T03:20:58;99588.34;;;-1.42;100.00
45357;BME280;31092;51.924;21.448;2022-12-08T03:23:24;99681.06;;;-0.94;100.00
45357;BME280;31092;51.924;21.448;2022-12-08T03:25:56;99660.44;;;-1.15;100.00
45357;BME280;31092;51.924;21.448;2022-12-08T03:28:24;99657.88;;;-1.29;100.00
45357;BME280;31092;51.924;21.448;2022-12-08T03:30:52;99708.97;;;-0.90;100.00
45357;BME280;31092;51.924;21.448;2022-12-08T03:33:30;99723.03;;;-0.90;100.00
45357;BME280;31092;51.924;21.448;2022-12-08T03:35:58;99678.22;;;-1.17;100.00
45357;BME280;31092;51.924;21.448;2022-12-08T03:38:25;99620.47;;;-1.61;100.00
45357;BME280;31092;51.924;21.448;2022-12-08T03:40:51;99599.88;;;-1.69;100.00
45357;BME280;31092;51.924;21.448;2022-12-08T03:43:35;99698.06;;;-1.11;100.00
45357;BME280;31092;51.924;21.448;2022-12-08T03:46:00;99693.09;;;-1.16;100.00
45357;BME280;31092;51.924;21.448;2022-12-08T03:48:26;99658.53;;;-1.38;100.00
45357;BME280;31092;51.924;21.448;2022-12-08T03:50:51;99691.19;;;-1.27;100.00
45357;BME280;31092;51.924;21.448;2022-12-08T03:53:17;99620.47;;;-1.74;100.00
45357;BME280;31092;51.924;21.448;2022-12-08T03:55:42;99730.75;;;-1.12;100.00
45357;BME280;31092;51.924;21.448;2022-12-08T03:58:08;99624.47;;;-1.69;100.00
45357;BME280;31092;51.924;21.448;2022-12-08T04:00:33;99638.63;;;-1.57;100.00
45357;BME280;31092;51.924;21.448;2022-12-08T04:02:59;99639.38;;;-1.55;100.00
45357;BME280;31092;51.924;21.448;2022-12-08T04:05:24;99707.03;;;-1.14;100.00
45357;BME280;31092;51.924;21.448;2022-12-08T04:07:50;99713.91;;;-1.11;100.00
45357;BME280;31092;51.924;21.448;2022-12-08T04:10:15;99656.94;;;-1.41;100.00
45357;BME280;31092;51.924;21.448;2022-12-08T04:12:40;99736.66;;;-0.83;100.00
45357;BME280;31092;51.924;21.448;2022-12-08T04:15:06;99628.22;;;-1.46;100.00
45357;BME280;31092;51.924;21.448;2022-12-08T04:17:32;99608.22;;;-1.62;100.00
45357;BME280;31092;51.924;21.448;2022-12-08T04:19:57;99698.69;;;-1.08;100.00
45357;BME280;31092;51.924;21.448;2022-12-08T04:22:23;99668.56;;;-1.31;100.00
45357;BME280;31092;51.924;21.448;2022-12-08T04:24:48;99642.53;;;-1.50;100.00
45357;BME280;31092;51.924;21.448;2022-12-08T04:27:14;99745.00;;;-0.89;100.00
45357;BME280;31092;51.924;21.448;2022-12-08T04:29:39;99669.94;;;-1.38;100.00
45357;BME280;31092;51.924;21.448;2022-12-08T04:32:05;99617.06;;;-1.76;100.00
45357;BME280;31092;51.924;21.448;2022-12-08T04:34:30;99669.72;;;-1.48;100.00
45357;BME280;31092;51.924;21.448;2022-12-08T04:36:56;99647.72;;;-1.61;100.00
45357;BME280;31092;51.924;21.448;2022-12-08T04:39:21;99740.34;;;-1.11;100.00
45357;BME280;31092;51.924;21.448;2022-12-08T04:41:46;99757.69;;;-1.07;100.00
45357;BME280;31092;51.924;21.448;2022-12-08T04:44:12;99634.25;;;-1.83;100.00
45357;BME280;31092;51.924;21.448;2022-12-08T04:46:37;99752.84;;;-1.13;100.00
45357;BME280;31092;51.924;21.448;2022-12-08T04:49:03;99592.69;;;-2.07;100.00
45357;BME280;31092;51.924;21.448;2022-12-08T04:51:28;99677.41;;;-1.57;100.00
45357;BME280;31092;51.924;21.448;2022-12-08T04:53:54;99584.56;;;-2.17;100.00
45357;BME280;31092;51.924;21.448;2022-12-08T04:56:19;99696.25;;;-1.49;100.00
45357;BME280;31092;51.924;21.448;2022-12-08T04:58:45;99639.44;;;-1.82;100.00
45357;BME280;31092;51.924;21.448;2022-12-08T05:01:11;99641.22;;;-1.82;100.00
45357;BME280;31092;51.924;21.448;2022-12-08T05:03:37;99718.13;;;-1.34;100.00
45357;BME280;31092;51.924;21.448;2022-12-08T05:06:03;99740.63;;;-1.29;100.00
45357;BME280;31092;51.924;21.448;2022-12-08T05:08:28;99661.19;;;-1.78;100.00
45357;BME280;31092;51.924;21.448;2022-12-08T05:11:01;99743.78;;;-1.36;100.00
45357;BME280;31092;51.924;21.448;2022-12-08T05:13:27;99649.06;;;-1.81;100.00
45357;BME280;31092;51.924;21.448;2022-12-08T05:15:52;99723.81;;;-1.40;100.00
45357;BME280;31092;51.924;21.448;2022-12-08T05:18:18;99658.88;;;-1.83;100.00
45357;BME280;31092;51.924;21.448;2022-12-08T05:20:43;99755.66;;;-1.29;100.00
45357;BME280;31092;51.924;21.448;2022-12-08T05:23:09;99729.22;;;-1.42;100.00
45357;BME280;31092;51.924;21.448;2022-12-08T05:25:34;99678.75;;;-1.77;100.00
45357;BME280;31092;51.924;21.448;2022-12-08T05:28:00;99663.88;;;-1.93;100.00
45357;BME280;31092;51.924;21.448;2022-12-08T05:30:25;99745.25;;;-1.45;100.00
45357;BME280;31092;51.924;21.448;2022-12-08T05:32:50;99775.53;;;-1.24;100.00
45357;BME280;31092;51.924;21.448;2022-12-08T05:35:16;99761.03;;;-1.31;100.00
45357;BME280;31092;51.924;21.448;2022-12-08T05:37:41;99668.88;;;-1.88;100.00
45357;BME280;31092;51.924;21.448;2022-12-08T05:40:07;99736.56;;;-1.60;100.00
45357;BME280;31092;51.924;21.448;2022-12-08T05:42:33;99781.88;;;-1.26;100.00
45357;BME280;31092;51.924;21.448;2022-12-08T05:44:58;99696.06;;;-1.73;100.00
45357;BME280;31092;51.924;21.448;2022-12-08T05:47:24;99660.31;;;-1.91;100.00
45357;BME280;31092;51.924;21.448;2022-12-08T05:49:50;99771.63;;;-1.31;100.00
45357;BME280;31092;51.924;21.448;2022-12-08T05:52:15;99692.22;;;-1.82;100.00
45357;BME280;31092;51.924;21.448;2022-12-08T05:54:41;99677.84;;;-1.90;100.00
45357;BME280;31092;51.924;21.448;2022-12-08T05:57:07;99700.50;;;-1.74;100.00
45357;BME280;31092;51.924;21.448;2022-12-08T05:59:33;99688.75;;;-1.82;100.00
45357;BME280;31092;51.924;21.448;2022-12-08T06:01:58;99791.69;;;-1.28;100.00
45357;BME280;31092;51.924;21.448;2022-12-08T06:04:23;99796.03;;;-1.27;100.00
45357;BME280;31092;51.924;21.448;2022-12-08T06:06:49;99796.13;;;-1.29;100.00
45357;BME280;31092;51.924;21.448;2022-12-08T06:09:14;99778.19;;;-1.51;100.00
45357;BME280;31092;51.924;21.448;2022-12-08T06:11:41;99711.63;;;-1.96;100.00
45357;BME280;31092;51.924;21.448;2022-12-08T06:14:09;99814.59;;;-1.41;100.00
45357;BME280;31092;51.924;21.448;2022-12-08T06:16:35;99796.34;;;-1.59;100.00
45357;BME280;31092;51.924;21.448;2022-12-08T06:19:00;99726.34;;;-2.06;100.00
45357;BME280;31092;51.924;21.448;2022-12-08T06:21:26;99795.78;;;-1.64;100.00
45357;BME280;31092;51.924;21.448;2022-12-08T06:23:52;99822.09;;;-1.62;100.00
45357;BME280;31092;51.924;21.448;2022-12-08T06:26:19;99797.94;;;-1.83;100.00
45357;BME280;31092;51.924;21.448;2022-12-08T06:28:45;99801.41;;;-1.83;100.00
45357;BME280;31092;51.924;21.448;2022-12-08T06:33:42;99817.59;;;-1.75;100.00
45357;BME280;31092;51.924;21.448;2022-12-08T06:36:12;99742.59;;;-2.26;100.00
45357;BME280;31092;51.924;21.448;2022-12-08T06:38:39;99720.84;;;-2.44;100.00
45357;BME280;31092;51.924;21.448;2022-12-08T06:41:06;99811.03;;;-1.96;100.00
45357;BME280;31092;51.924;21.448;2022-12-08T06:43:32;99730.09;;;-2.37;100.00
45357;BME280;31092;51.924;21.448;2022-12-08T06:45:59;99805.50;;;-1.91;100.00
45357;BME280;31092;51.924;21.448;2022-12-08T06:48:24;99712.78;;;-2.55;100.00
45357;BME280;31092;51.924;21.448;2022-12-08T06:50:50;99829.78;;;-1.86;100.00
45357;BME280;31092;51.924;21.448;2022-12-08T06:53:15;99828.59;;;-1.95;100.00
45357;BME280;31092;51.924;21.448;2022-12-08T06:55:46;99738.56;;;-2.46;100.00
45357;BME280;31092;51.924;21.448;2022-12-08T06:58:13;99734.53;;;-2.52;100.00
45357;BME280;31092;51.924;21.448;2022-12-08T07:00:39;99807.75;;;-2.14;100.00
45357;BME280;31092;51.924;21.448;2022-12-08T07:03:06;99848.75;;;-1.94;100.00
45357;BME280;31092;51.924;21.448;2022-12-08T07:05:33;99857.69;;;-1.97;100.00
45357;BME280;31092;51.924;21.448;2022-12-08T07:07:59;99819.47;;;-2.18;100.00
45357;BME280;31092;51.924;21.448;2022-12-08T07:10:25;99765.59;;;-2.57;100.00
45357;BME280;31092;51.924;21.448;2022-12-08T07:12:50;99829.81;;;-2.15;100.00
45357;BME280;31092;51.924;21.448;2022-12-08T07:15:16;99855.81;;;-1.95;100.00
45357;BME280;31092;51.924;21.448;2022-12-08T07:17:42;99793.75;;;-2.29;100.00
45357;BME280;31092;51.924;21.448;2022-12-08T07:20:07;99758.16;;;-2.50;100.00
45357;BME280;31092;51.924;21.448;2022-12-08T07:22:33;99821.25;;;-2.04;100.00
45357;BME280;31092;51.924;21.448;2022-12-08T07:24:58;99788.16;;;-2.10;100.00
45357;BME280;31092;51.924;21.448;2022-12-08T07:27:24;99856.31;;;-1.61;100.00
45357;BME280;31092;51.924;21.448;2022-12-08T07:29:49;99854.50;;;-1.46;100.00
45357;BME280;31092;51.924;21.448;2022-12-08T07:32:14;99791.94;;;-1.73;100.00
45357;BME280;31092;51.924;21.448;2022-12-08T07:34:40;99858.94;;;-1.19;100.00
45357;BME280;31092;51.924;21.448;2022-12-08T07:37:05;99804.41;;;-1.48;100.00
45357;BME280;31092;51.924;21.448;2022-12-08T07:39:31;99855.09;;;-1.01;100.00
45357;BME280;31092;51.924;21.448;2022-12-08T07:41:56;99858.94;;;-0.92;100.00
45357;BME280;31092;51.924;21.448;2022-12-08T07:44:22;99848.13;;;-0.89;100.00
45357;BME280;31092;51.924;21.448;2022-12-08T07:46:48;99865.91;;;-0.79;100.00
45357;BME280;31092;51.924;21.448;2022-12-08T07:49:13;99872.81;;;-0.76;100.00
45357;BME280;31092;51.924;21.448;2022-12-08T07:51:39;99860.75;;;-0.80;100.00
45357;BME280;31092;51.924;21.448;2022-12-08T07:54:04;99763.56;;;-1.42;100.00
45357;BME280;31092;51.924;21.448;2022-12-08T07:56:30;99788.19;;;-1.29;100.00
45357;BME280;31092;51.924;21.448;2022-12-08T07:58:55;99736.13;;;-1.66;100.00
45357;BME280;31092;51.924;21.448;2022-12-08T08:01:26;99833.25;;;-1.17;100.00
45357;BME280;31092;51.924;21.448;2022-12-08T08:03:54;99773.53;;;-1.60;100.00
45357;BME280;31092;51.924;21.448;2022-12-08T08:06:20;99808.47;;;-1.42;100.00
45357;BME280;31092;51.924;21.448;2022-12-08T08:08:45;99877.47;;;-1.07;100.00
45357;BME280;31092;51.924;21.448;2022-12-08T08:11:11;99796.03;;;-1.54;100.00
45357;BME280;31092;51.924;21.448;2022-12-08T08:13:36;99813.09;;;-1.46;100.00
45357;BME280;31092;51.924;21.448;2022-12-08T08:16:03;99786.16;;;-1.65;100.00
45357;BME280;31092;51.924;21.448;2022-12-08T08:18:29;99892.41;;;-1.06;100.00
45357;BME280;31092;51.924;21.448;2022-12-08T08:20:55;99874.16;;;-1.23;100.00
45357;BME280;31092;51.924;21.448;2022-12-08T08:23:20;99880.41;;;-1.11;100.00
45357;BME280;31092;51.924;21.448;2022-12-08T08:25:46;99888.09;;;-0.94;100.00
45357;BME280;31092;51.924;21.448;2022-12-08T08:28:11;99890.03;;;-0.83;100.00
45357;BME280;31092;51.924;21.448;2022-12-08T08:30:37;99893.63;;;-0.72;100.00
45357;BME280;31092;51.924;21.448;2022-12-08T08:33:02;99892.91;;;-0.74;100.00
45357;BME280;31092;51.924;21.448;2022-12-08T08:35:28;99865.59;;;-0.87;100.00
45357;BME280;31092;51.924;21.448;2022-12-08T08:37:53;99891.00;;;-0.72;100.00
45357;BME280;31092;51.924;21.448;2022-12-08T08:40:19;99808.81;;;-1.21;100.00
45357;BME280;31092;51.924;21.448;2022-12-08T08:42:44;99892.06;;;-0.74;100.00
45357;BME280;31092;51.924;21.448;2022-12-08T08:45:10;99825.22;;;-1.16;100.00
45357;BME280;31092;51.924;21.448;2022-12-08T08:47:35;99837.41;;;-1.01;100.00
45357;BME280;31092;51.924;21.448;2022-12-08T08:50:02;99880.53;;;-0.73;100.00
45357;BME280;31092;51.924;21.448;2022-12-08T08:52:27;99876.66;;;-0.67;100.00
45357;BME280;31092;51.924;21.448;2022-12-08T08:54:53;99786.03;;;-1.09;100.00
45357;BME280;31092;51.924;21.448;2022-12-08T08:57:18;99866.69;;;-0.51;100.00
45357;BME280;31092;51.924;21.448;2022-12-08T08:59:44;99758.13;;;-1.13;100.00
45357;BME280;31092;51.924;21.448;2022-12-08T09:02:15;99821.19;;;-0.69;100.00
45357;BME280;31092;51.924;21.448;2022-12-08T09:04:42;99896.44;;;-0.22;100.00
45357;BME280;31092;51.924;21.448;2022-12-08T09:07:08;99848.94;;;-0.49;100.00
45357;BME280;31092;51.924;21.448;2022-12-08T09:09:33;99871.69;;;-0.34;100.00
45357;BME280;31092;51.924;21.448;2022-12-08T09:11:59;99810.84;;;-0.59;100.00
45357;BME280;31092;51.924;21.448;2022-12-08T09:14:24;99821.53;;;-0.48;100.00
45357;BME280;31092;51.924;21.448;2022-12-08T09:16:50;99870.09;;;-0.11;100.00
45357;BME280;31092;51.924;21.448;2022-12-08T09:19:15;99814.00;;;-0.41;100.00
45357;BME280;31092;51.924;21.448;2022-12-08T09:21:41;99814.97;;;-0.42;100.00
45357;BME280;31092;51.924;21.448;2022-12-08T09:24:07;99873.47;;;0.04;100.00
45357;BME280;31092;51.924;21.448;2022-12-08T09:26:39;99788.81;;;-0.34;100.00
45357;BME280;31092;51.924;21.448;2022-12-08T09:29:05;99873.16;;;0.21;100.00
45357;BME280;31092;51.924;21.448;2022-12-08T09:31:30;99877.13;;;0.27;100.00
45357;BME280;31092;51.924;21.448;2022-12-08T09:33:56;99788.34;;;-0.15;100.00
45357;BME280;31092;51.924;21.448;2022-12-08T09:36:21;99853.09;;;0.30;100.00
45357;BME280;31092;51.924;21.448;2022-12-08T09:38:47;99776.59;;;-0.11;100.00
45357;BME280;31092;51.924;21.448;2022-12-08T09:41:43;99888.06;;;0.59;100.00
45357;BME280;31092;51.924;21.448;2022-12-08T09:47:05;99876.81;;;0.68;100.00
45357;BME280;31092;51.924;21.448;2022-12-08T09:49:39;99735.81;;;-0.09;100.00
45357;BME280;31092;51.924;21.448;2022-12-08T09:52:14;99870.81;;;0.78;100.00
45357;BME280;31092;51.924;21.448;2022-12-08T09:54:44;99874.66;;;0.74;100.00
45357;BME280;31092;51.924;21.448;2022-12-08T09:57:14;99770.22;;;0.28;100.00
45357;BME280;31092;51.924;21.448;2022-12-08T09:59:44;99768.53;;;0.27;100.00
45357;BME280;31092;51.924;21.448;2022-12-08T10:02:18;99879.31;;;1.07;100.00
45357;BME280;31092;51.924;21.448;2022-12-08T10:04:45;99822.34;;;1.00;100.00
45357;BME280;31092;51.924;21.448;2022-12-08T10:09:59;99878.56;;;1.40;100.00
45357;BME280;31092;51.924;21.448;2022-12-08T10:12:39;99811.53;;;1.03;100.00
45357;BME280;31092;51.924;21.448;2022-12-08T10:17:52;99890.72;;;1.31;100.00
45357;BME280;31092;51.924;21.448;2022-12-08T10:20:25;99883.38;;;1.35;100.00
45357;BME280;31092;51.924;21.448;2022-12-08T10:23:31;99880.63;;;1.36;100.00
45357;BME280;31092;51.924;21.448;2022-12-08T10:26:01;99853.31;;;1.23;100.00
45357;BME280;31092;51.924;21.448;2022-12-08T10:28:28;99791.34;;;0.89;100.00
45357;BME280;31092;51.924;21.448;2022-12-08T10:30:53;99788.66;;;1.13;100.00
45357;BME280;31092;51.924;21.448;2022-12-08T10:33:20;99825.06;;;1.57;100.00
45357;BME280;31092;51.924;21.448;2022-12-08T10:35:56;99854.50;;;1.88;100.00
45357;BME280;31092;51.924;21.448;2022-12-08T10:38:32;99826.41;;;1.85;100.00
45357;BME280;31092;51.924;21.448;2022-12-08T10:43:41;99837.50;;;1.79;100.00
45357;BME280;31092;51.924;21.448;2022-12-08T10:46:15;99856.31;;;1.87;100.00
45357;BME280;31092;51.924;21.448;2022-12-08T10:53:59;99713.50;;;0.79;100.00
45357;BME280;31092;51.924;21.448;2022-12-08T10:56:30;99839.28;;;1.56;100.00
45357;BME280;31092;51.924;21.448;2022-12-08T10:59:12;99843.13;;;1.63;100.00
45357;BME280;31092;51.924;21.448;2022-12-08T11:01:39;99824.53;;;1.52;100.00
45357;BME280;31092;51.924;21.448;2022-12-08T11:04:19;99860.78;;;1.64;100.00
45357;BME280;31092;51.924;21.448;2022-12-08T11:06:47;99838.31;;;1.57;100.00
45357;BME280;31092;51.924;21.448;2022-12-08T11:12:25;99831.06;;;1.71;100.00
45357;BME280;31092;51.924;21.448;2022-12-08T11:17:15;99830.38;;;1.80;100.00
45357;BME280;31092;51.924;21.448;2022-12-08T11:19:44;99838.94;;;1.83;100.00
45357;BME280;31092;51.924;21.448;2022-12-08T11:22:29;99794.66;;;1.61;100.00
45357;BME280;31092;51.924;21.448;2022-12-08T11:27:25;99829.06;;;1.85;100.00
45357;BME280;31092;51.924;21.448;2022-12-08T11:29:51;99733.84;;;1.36;100.00
45357;BME280;31092;51.924;21.448;2022-12-08T11:32:17;99754.22;;;1.47;100.00
45357;BME280;31092;51.924;21.448;2022-12-08T11:34:57;99716.94;;;1.26;100.00
45357;BME280;31092;51.924;21.448;2022-12-08T11:37:38;99787.28;;;1.76;100.00
45357;BME280;31092;51.924;21.448;2022-12-08T11:45:25;99784.38;;;2.02;100.00
45357;BME280;31092;51.924;21.448;2022-12-08T11:51:04;99808.28;;;2.24;100.00
45357;BME280;31092;51.924;21.448;2022-12-08T11:56:28;99722.25;;;1.82;100.00
45357;BME280;31092;51.924;21.448;2022-12-08T11:59:12;99732.72;;;1.95;100.00
45357;BME280;31092;51.924;21.448;2022-12-08T12:01:40;99741.50;;;2.06;100.00
45357;BME280;31092;51.924;21.448;2022-12-08T12:04:22;99789.88;;;2.44;100.00
45357;BME280;31092;51.924;21.448;2022-12-08T12:18:30;99740.97;;;2.24;100.00
45357;BME280;31092;51.924;21.448;2022-12-08T12:26:22;99756.03;;;2.34;100.00
45357;BME280;31092;51.924;21.448;2022-12-08T12:28:54;99773.06;;;2.43;100.00
45357;BME280;31092;51.924;21.448;2022-12-08T12:31:43;99770.41;;;2.43;100.00
45357;BME280;31092;51.924;21.448;2022-12-08T12:39:12;99764.38;;;2.41;100.00
45357;BME280;31092;51.924;21.448;2022-12-08T12:42:04;99760.03;;;2.40;100.00
45357;BME280;31092;51.924;21.448;2022-12-08T12:47:00;99742.31;;;2.29;100.00
45357;BME280;31092;51.924;21.448;2022-12-08T12:57:48;99659.63;;;1.68;100.00
45357;BME280;31092;51.924;21.448;2022-12-08T13:00:20;99757.78;;;2.24;100.00
45357;BME280;31092;51.924;21.448;2022-12-08T13:02:47;99751.00;;;2.20;100.00
45357;BME280;31092;51.924;21.448;2022-12-08T13:10:22;99763.97;;;2.13;100.00
45357;BME280;31092;51.924;21.448;2022-12-08T13:18:27;99687.63;;;1.61;100.00
45357;BME280;31092;51.924;21.448;2022-12-08T13:20:59;99758.78;;;2.01;100.00
45357;BME280;31092;51.924;21.448;2022-12-08T13:23:29;99769.53;;;1.99;100.00
45357;BME280;31092;51.924;21.448;2022-12-08T13:26:11;99736.47;;;1.81;100.00
45357;BME280;31092;51.924;21.448;2022-12-08T13:34:00;99725.38;;;1.76;100.00
45357;BME280;31092;51.924;21.448;2022-12-08T13:36:35;99752.28;;;1.82;100.00
45357;BME280;31092;51.924;21.448;2022-12-08T13:39:03;99703.56;;;1.50;100.00
45357;BME280;31092;51.924;21.448;2022-12-08T13:41:38;99616.25;;;1.02;100.00
45357;BME280;31092;51.924;21.448;2022-12-08T13:44:09;99730.19;;;1.71;100.00
45357;BME280;31092;51.924;21.448;2022-12-08T13:46:44;99716.00;;;1.60;100.00
45357;BME280;31092;51.924;21.448;2022-12-08T13:49:17;99649.28;;;1.20;100.00
45357;BME280;31092;51.924;21.448;2022-12-08T13:51:47;99689.19;;;1.41;100.00
45357;BME280;31092;51.924;21.448;2022-12-08T13:56:46;99633.38;;;1.09;100.00
45357;BME280;31092;51.924;21.448;2022-12-08T14:01:49;99738.06;;;1.50;100.00
45357;BME280;31092;51.924;21.448;2022-12-08T14:04:18;99672.06;;;1.11;100.00
45357;BME280;31092;51.924;21.448;2022-12-08T14:06:47;99719.59;;;1.37;100.00
45357;BME280;31092;51.924;21.448;2022-12-08T14:09:22;99720.91;;;1.31;100.00
45357;BME280;31092;51.924;21.448;2022-12-08T14:14:46;99671.34;;;0.98;100.00
45357;BME280;31092;51.924;21.448;2022-12-08T14:17:15;99647.81;;;0.82;100.00
45357;BME280;31092;51.924;21.448;2022-12-08T14:19:52;99652.38;;;0.80;100.00
45357;BME280;31092;51.924;21.448;2022-12-08T14:22:18;99649.25;;;0.75;100.00
45357;BME280;31092;51.924;21.448;2022-12-08T14:24:47;99698.69;;;1.10;100.00
45357;BME280;31092;51.924;21.448;2022-12-08T14:27:19;99748.19;;;1.33;100.00
45357;BME280;31092;51.924;21.448;2022-12-08T14:29:48;99735.16;;;1.30;100.00
45357;BME280;31092;51.924;21.448;2022-12-08T14:35:01;99679.88;;;0.90;100.00
45357;BME280;31092;51.924;21.448;2022-12-08T14:37:41;99648.28;;;0.76;100.00
45357;BME280;31092;51.924;21.448;2022-12-08T14:53:41;99673.75;;;1.01;100.00
45357;BME280;31092;51.924;21.448;2022-12-08T15:00:04;99724.53;;;1.41;100.00
45357;BME280;31092;51.924;21.448;2022-12-08T15:04:57;99651.94;;;0.98;100.00
45357;BME280;31092;51.924;21.448;2022-12-08T15:07:27;99660.50;;;1.01;100.00
45357;BME280;31092;51.924;21.448;2022-12-08T15:12:41;99718.53;;;1.39;100.00
45357;BME280;31092;51.924;21.448;2022-12-08T15:15:21;99724.66;;;1.40;100.00
45357;BME280;31092;51.924;21.448;2022-12-08T15:23:03;99652.16;;;1.06;100.00
45357;BME280;31092;51.924;21.448;2022-12-08T15:25:29;99718.28;;;1.42;100.00
45357;BME280;31092;51.924;21.448;2022-12-08T15:27:55;99718.28;;;1.42;100.00
45357;BME280;31092;51.924;21.448;2022-12-08T15:30:22;99621.41;;;0.81;100.00